sensor_id;sensor_type;location;lat;lon;timestamp;P1;durP1;ratioP1;P2;durP2;ratioP2
78141;SDS011;67393;52.620;13.482;2024-02-23T00:01:03;1.52;;;1.02;;
78141;SDS011;67393;52.620;13.482;2024-02-23T00:03:29;1.48;;;1.33;;
78141;SDS011;67393;52.620;13.482;2024-02-23T00:05:55;1.40;;;1.02;;
78141;SDS011;67393;52.620;13.482;2024-02-23T00:08:22;1.98;;;1.00;;
78141;SDS011;67393;52.620;13.482;2024-02-23T00:10:48;1.90;;;0.90;;
78141;SDS011;67393;52.620;13.482;2024-02-23T00:13:14;1.63;;;1.10;;
78141;SDS011;67393;52.620;13.482;2024-02-23T00:15:41;1.70;;;1.00;;
78141;SDS011;67393;52.620;13.482;2024-02-23T00:18:07;2.17;;;1.40;;
78141;SDS011;67393;52.620;13.482;2024-02-23T00:20:33;1.83;;;1.30;;
78141;SDS011;67393;52.620;13.482;2024-02-23T00:22:59;1.85;;;1.33;;
78141;SDS011;67393;52.620;13.482;2024-02-23T00:25:26;1.48;;;1.30;;
78141;SDS011;67393;52.620;13.482;2024-02-23T00:27:52;1.92;;;1.33;;
78141;SDS011;67393;52.620;13.482;2024-02-23T00:30:18;3.25;;;1.23;;
78141;SDS011;67393;52.620;13.482;2024-02-23T00:32:44;2.42;;;1.55;;
78141;SDS011;67393;52.620;13.482;2024-02-23T00:35:11;1.58;;;1.25;;
78141;SDS011;67393;52.620;13.482;2024-02-23T00:37:37;2.75;;;1.30;;
78141;SDS011;67393;52.620;13.482;2024-02-23T00:40:04;2.10;;;1.20;;
78141;SDS011;67393;52.620;13.482;2024-02-23T00:42:30;1.20;;;1.05;;
78141;SDS011;67393;52.620;13.482;2024-02-23T00:44:57;2.30;;;1.42;;
78141;SDS011;67393;52.620;13.482;2024-02-23T00:47:23;2.33;;;1.05;;
78141;SDS011;67393;52.620;13.482;2024-02-23T00:49:50;3.00;;;1.25;;
78141;SDS011;67393;52.620;13.482;2024-02-23T00:52:16;3.28;;;1.40;;
78141;SDS011;67393;52.620;13.482;2024-02-23T00:54:42;2.60;;;1.40;;
78141;SDS011;67393;52.620;13.482;2024-02-23T00:57:08;1.70;;;1.20;;
78141;SDS011;67393;52.620;13.482;2024-02-23T00:59:35;1.40;;;1.10;;
78141;SDS011;67393;52.620;13.482;2024-02-23T01:02:01;2.53;;;1.30;;
78141;SDS011;67393;52.620;13.482;2024-02-23T01:04:27;1.73;;;1.30;;
78141;SDS011;67393;52.620;13.482;2024-02-23T01:06:54;2.90;;;1.52;;
78141;SDS011;67393;52.620;13.482;2024-02-23T01:09:20;2.83;;;1.33;;
78141;SDS011;67393;52.620;13.482;2024-02-23T01:11:47;2.75;;;1.00;;
78141;SDS011;67393;52.620;13.482;2024-02-23T01:14:14;3.40;;;1.20;;
78141;SDS011;67393;52.620;13.482;2024-02-23T01:16:40;1.42;;;1.30;;
78141;SDS011;67393;52.620;13.482;2024-02-23T01:19:06;3.15;;;1.27;;
78141;SDS011;67393;52.620;13.482;2024-02-23T01:21:32;1.75;;;1.30;;
78141;SDS011;67393;52.620;13.482;2024-02-23T01:23:59;1.50;;;1.15;;
78141;SDS011;67393;52.620;13.482;2024-02-23T01:26:25;1.40;;;1.10;;
78141;SDS011;67393;52.620;13.482;2024-02-23T01:28:51;1.00;;;0.93;;
78141;SDS011;67393;52.620;13.482;2024-02-23T01:31:18;1.25;;;1.10;;
78141;SDS011;67393;52.620;13.482;2024-02-23T01:33:44;1.30;;;1.20;;
78141;SDS011;67393;52.620;13.482;2024-02-23T01:36:10;2.00;;;1.30;;
78141;SDS011;67393;52.620;13.482;2024-02-23T01:38:37;1.70;;;1.27;;
78141;SDS011;67393;52.620;13.482;2024-02-23T01:41:03;1.13;;;1.02;;
78141;SDS011;67393;52.620;13.482;2024-02-23T01:43:30;3.70;;;1.05;;
78141;SDS011;67393;52.620;13.482;2024-02-23T01:45:56;1.20;;;1.00;;
78141;SDS011;67393;52.620;13.482;2024-02-23T01:48:22;2.17;;;1.13;;
78141;SDS011;67393;52.620;13.482;2024-02-23T01:50:49;1.30;;;1.10;;
78141;SDS011;67393;52.620;13.482;2024-02-23T01:53:15;2.30;;;1.10;;
78141;SDS011;67393;52.620;13.482;2024-02-23T01:55:42;1.30;;;1.20;;
78141;SDS011;67393;52.620;13.482;2024-02-23T01:58:09;3.25;;;1.02;;
78141;SDS011;67393;52.620;13.482;2024-02-23T02:00:35;2.90;;;1.33;;
78141;SDS011;67393;52.620;13.482;2024-02-23T02:03:02;1.70;;;1.15;;
78141;SDS011;67393;52.620;13.482;2024-02-23T02:05:28;1.92;;;1.20;;
78141;SDS011;67393;52.620;13.482;2024-02-23T02:07:55;1.65;;;0.90;;
78141;SDS011;67393;52.620;13.482;2024-02-23T02:10:21;2.55;;;0.95;;
78141;SDS011;67393;52.620;13.482;2024-02-23T02:12:48;2.75;;;1.02;;
78141;SDS011;67393;52.620;13.482;2024-02-23T02:15:14;1.05;;;0.77;;
78141;SDS011;67393;52.620;13.482;2024-02-23T02:17:40;1.60;;;1.10;;
78141;SDS011;67393;52.620;13.482;2024-02-23T02:20:07;1.38;;;0.82;;
78141;SDS011;67393;52.620;13.482;2024-02-23T02:22:37;1.15;;;1.05;;
78141;SDS011;67393;52.620;13.482;2024-02-23T02:25:03;0.77;;;0.57;;
78141;SDS011;67393;52.620;13.482;2024-02-23T02:27:29;0.70;;;0.70;;
78141;SDS011;67393;52.620;13.482;2024-02-23T02:29:55;3.17;;;0.77;;
78141;SDS011;67393;52.620;13.482;2024-02-23T02:32:22;1.27;;;0.82;;
78141;SDS011;67393;52.620;13.482;2024-02-23T02:34:48;3.85;;;0.68;;
78141;SDS011;67393;52.620;13.482;2024-02-23T02:37:15;0.60;;;0.60;;
78141;SDS011;67393;52.620;13.482;2024-02-23T02:39:41;3.33;;;0.98;;
78141;SDS011;67393;52.620;13.482;2024-02-23T02:42:08;1.85;;;0.73;;
78141;SDS011;67393;52.620;13.482;2024-02-23T02:44:34;0.80;;;0.50;;
78141;SDS011;67393;52.620;13.482;2024-02-23T02:47:00;0.55;;;0.47;;
78141;SDS011;67393;52.620;13.482;2024-02-23T02:49:27;0.85;;;0.73;;
78141;SDS011;67393;52.620;13.482;2024-02-23T02:51:53;0.60;;;0.43;;
78141;SDS011;67393;52.620;13.482;2024-02-23T02:54:19;0.30;;;0.30;;
78141;SDS011;67393;52.620;13.482;2024-02-23T02:56:47;1.42;;;0.63;;
78141;SDS011;67393;52.620;13.482;2024-02-23T02:59:13;0.80;;;0.40;;
78141;SDS011;67393;52.620;13.482;2024-02-23T03:01:39;0.82;;;0.32;;
78141;SDS011;67393;52.620;13.482;2024-02-23T03:04:07;1.60;;;0.47;;
78141;SDS011;67393;52.620;13.482;2024-02-23T03:06:34;2.15;;;0.70;;
78141;SDS011;67393;52.620;13.482;2024-02-23T03:09:00;1.08;;;0.82;;
78141;SDS011;67393;52.620;13.482;2024-02-23T03:11:26;0.82;;;0.55;;
78141;SDS011;67393;52.620;13.482;2024-02-23T03:13:53;0.43;;;0.43;;
78141;SDS011;67393;52.620;13.482;2024-02-23T03:16:20;0.68;;;0.52;;
78141;SDS011;67393;52.620;13.482;2024-02-23T03:18:46;0.60;;;0.60;;
78141;SDS011;67393;52.620;13.482;2024-02-23T03:21:13;0.43;;;0.30;;
78141;SDS011;67393;52.620;13.482;2024-02-23T03:23:39;1.35;;;0.70;;
78141;SDS011;67393;52.620;13.482;2024-02-23T03:26:06;1.45;;;0.52;;
78141;SDS011;67393;52.620;13.482;2024-02-23T03:28:33;1.08;;;1.08;;
78141;SDS011;67393;52.620;13.482;2024-02-23T03:31:02;0.95;;;0.22;;
78141;SDS011;67393;52.620;13.482;2024-02-23T03:33:28;0.57;;;0.40;;
78141;SDS011;67393;52.620;13.482;2024-02-23T03:35:55;0.95;;;0.75;;
78141;SDS011;67393;52.620;13.482;2024-02-23T03:38:21;0.28;;;0.28;;
78141;SDS011;67393;52.620;13.482;2024-02-23T03:40:47;1.20;;;1.10;;
78141;SDS011;67393;52.620;13.482;2024-02-23T03:43:13;3.53;;;1.17;;
78141;SDS011;67393;52.620;13.482;2024-02-23T03:45:40;1.88;;;0.40;;
78141;SDS011;67393;52.620;13.482;2024-02-23T03:48:06;1.15;;;0.68;;
78141;SDS011;67393;52.620;13.482;2024-02-23T03:50:32;2.97;;;0.65;;
78141;SDS011;67393;52.620;13.482;2024-02-23T03:52:59;0.60;;;0.50;;
78141;SDS011;67393;52.620;13.482;2024-02-23T03:55:25;3.67;;;0.52;;
78141;SDS011;67393;52.620;13.482;2024-02-23T03:57:51;0.88;;;0.50;;
78141;SDS011;67393;52.620;13.482;2024-02-23T04:00:17;0.50;;;0.45;;
78141;SDS011;67393;52.620;13.482;2024-02-23T04:02:44;0.63;;;0.52;;
78141;SDS011;67393;52.620;13.482;2024-02-23T04:05:10;0.10;;;0.10;;
78141;SDS011;67393;52.620;13.482;2024-02-23T04:07:36;1.50;;;0.63;;
78141;SDS011;67393;52.620;13.482;2024-02-23T04:10:03;1.08;;;0.43;;
78141;SDS011;67393;52.620;13.482;2024-02-23T04:12:29;2.58;;;0.80;;
78141;SDS011;67393;52.620;13.482;2024-02-23T04:14:55;1.35;;;0.60;;
78141;SDS011;67393;52.620;13.482;2024-02-23T04:17:21;0.82;;;0.40;;
78141;SDS011;67393;52.620;13.482;2024-02-23T04:19:48;0.52;;;0.52;;
78141;SDS011;67393;52.620;13.482;2024-02-23T04:22:14;0.85;;;0.50;;
78141;SDS011;67393;52.620;13.482;2024-02-23T04:24:40;0.40;;;0.40;;
78141;SDS011;67393;52.620;13.482;2024-02-23T04:27:07;1.85;;;0.60;;
78141;SDS011;67393;52.620;13.482;2024-02-23T04:29:33;0.47;;;0.32;;
78141;SDS011;67393;52.620;13.482;2024-02-23T04:32:00;0.82;;;0.38;;
78141;SDS011;67393;52.620;13.482;2024-02-23T04:34:27;1.98;;;0.57;;
78141;SDS011;67393;52.620;13.482;2024-02-23T04:36:54;0.40;;;0.40;;
78141;SDS011;67393;52.620;13.482;2024-02-23T04:39:20;0.55;;;0.32;;
78141;SDS011;67393;52.620;13.482;2024-02-23T04:41:47;0.77;;;0.40;;
78141;SDS011;67393;52.620;13.482;2024-02-23T04:44:13;3.17;;;0.80;;
78141;SDS011;67393;52.620;13.482;2024-02-23T04:46:39;1.05;;;0.45;;
78141;SDS011;67393;52.620;13.482;2024-02-23T04:49:05;0.57;;;0.57;;
78141;SDS011;67393;52.620;13.482;2024-02-23T04:51:32;1.45;;;0.60;;
78141;SDS011;67393;52.620;13.482;2024-02-23T04:53:58;2.85;;;0.57;;
78141;SDS011;67393;52.620;13.482;2024-02-23T04:56:24;3.13;;;0.28;;
78141;SDS011;67393;52.620;13.482;2024-02-23T04:58:51;0.25;;;0.25;;
78141;SDS011;67393;52.620;13.482;2024-02-23T05:01:17;2.15;;;0.52;;
78141;SDS011;67393;52.620;13.482;2024-02-23T05:03:43;0.73;;;0.40;;
78141;SDS011;67393;52.620;13.482;2024-02-23T05:06:10;0.47;;;0.47;;
78141;SDS011;67393;52.620;13.482;2024-02-23T05:08:36;0.50;;;0.50;;
78141;SDS011;67393;52.620;13.482;2024-02-23T05:11:02;0.45;;;0.45;;
78141;SDS011;67393;52.620;13.482;2024-02-23T05:13:29;0.88;;;0.47;;
78141;SDS011;67393;52.620;13.482;2024-02-23T05:15:55;0.60;;;0.60;;
78141;SDS011;67393;52.620;13.482;2024-02-23T05:18:22;0.90;;;0.52;;
78141;SDS011;67393;52.620;13.482;2024-02-23T05:20:48;0.52;;;0.50;;
78141;SDS011;67393;52.620;13.482;2024-02-23T05:23:18;2.40;;;0.60;;
78141;SDS011;67393;52.620;13.482;2024-02-23T05:25:44;0.38;;;0.38;;
78141;SDS011;67393;52.620;13.482;2024-02-23T05:28:11;0.77;;;0.60;;
78141;SDS011;67393;52.620;13.482;2024-02-23T05:30:37;3.35;;;0.70;;
78141;SDS011;67393;52.620;13.482;2024-02-23T05:33:03;0.28;;;0.28;;
78141;SDS011;67393;52.620;13.482;2024-02-23T05:35:29;0.15;;;0.15;;
78141;SDS011;67393;52.620;13.482;2024-02-23T05:37:56;0.43;;;0.30;;
78141;SDS011;67393;52.620;13.482;2024-02-23T05:40:22;0.40;;;0.40;;
78141;SDS011;67393;52.620;13.482;2024-02-23T05:42:48;0.47;;;0.45;;
78141;SDS011;67393;52.620;13.482;2024-02-23T05:45:15;0.88;;;0.68;;
78141;SDS011;67393;52.620;13.482;2024-02-23T05:47:41;0.60;;;0.60;;
78141;SDS011;67393;52.620;13.482;2024-02-23T05:50:13;1.35;;;0.88;;
78141;SDS011;67393;52.620;13.482;2024-02-23T05:52:39;0.65;;;0.65;;
78141;SDS011;67393;52.620;13.482;2024-02-23T05:55:06;3.88;;;0.70;;
78141;SDS011;67393;52.620;13.482;2024-02-23T05:57:32;0.45;;;0.45;;
78141;SDS011;67393;52.620;13.482;2024-02-23T05:59:58;0.68;;;0.47;;
78141;SDS011;67393;52.620;13.482;2024-02-23T06:02:24;0.47;;;0.47;;
78141;SDS011;67393;52.620;13.482;2024-02-23T06:04:51;0.80;;;0.75;;
78141;SDS011;67393;52.620;13.482;2024-02-23T06:07:17;0.77;;;0.70;;
78141;SDS011;67393;52.620;13.482;2024-02-23T06:09:44;0.60;;;0.60;;
78141;SDS011;67393;52.620;13.482;2024-02-23T06:12:10;0.80;;;0.63;;
78141;SDS011;67393;52.620;13.482;2024-02-23T06:14:36;1.10;;;0.73;;
78141;SDS011;67393;52.620;13.482;2024-02-23T06:17:03;0.88;;;0.77;;
78141;SDS011;67393;52.620;13.482;2024-02-23T06:19:29;0.63;;;0.63;;
78141;SDS011;67393;52.620;13.482;2024-02-23T06:21:55;0.57;;;0.30;;
78141;SDS011;67393;52.620;13.482;2024-02-23T06:24:21;4.30;;;0.75;;
78141;SDS011;67393;52.620;13.482;2024-02-23T06:26:48;0.88;;;0.70;;
78141;SDS011;67393;52.620;13.482;2024-02-23T06:29:14;0.38;;;0.38;;
78141;SDS011;67393;52.620;13.482;2024-02-23T06:31:40;0.63;;;0.40;;
78141;SDS011;67393;52.620;13.482;2024-02-23T06:34:07;0.52;;;0.52;;
78141;SDS011;67393;52.620;13.482;2024-02-23T06:36:33;1.42;;;0.52;;
78141;SDS011;67393;52.620;13.482;2024-02-23T06:39:00;4.80;;;1.23;;
78141;SDS011;67393;52.620;13.482;2024-02-23T06:41:26;1.13;;;0.70;;
78141;SDS011;67393;52.620;13.482;2024-02-23T06:43:52;0.60;;;0.60;;
78141;SDS011;67393;52.620;13.482;2024-02-23T06:46:19;0.60;;;0.60;;
78141;SDS011;67393;52.620;13.482;2024-02-23T06:48:45;0.60;;;0.60;;
78141;SDS011;67393;52.620;13.482;2024-02-23T06:51:12;1.98;;;1.02;;
78141;SDS011;67393;52.620;13.482;2024-02-23T06:53:38;0.77;;;0.77;;
78141;SDS011;67393;52.620;13.482;2024-02-23T06:56:05;1.45;;;0.70;;
78141;SDS011;67393;52.620;13.482;2024-02-23T06:58:31;2.50;;;0.63;;
78141;SDS011;67393;52.620;13.482;2024-02-23T07:00:57;1.17;;;1.10;;
78141;SDS011;67393;52.620;13.482;2024-02-23T07:03:24;0.88;;;0.55;;
78141;SDS011;67393;52.620;13.482;2024-02-23T07:05:50;0.82;;;0.80;;
78141;SDS011;67393;52.620;13.482;2024-02-23T07:08:17;0.70;;;0.60;;
78141;SDS011;67393;52.620;13.482;2024-02-23T07:10:44;3.25;;;0.93;;
78141;SDS011;67393;52.620;13.482;2024-02-23T07:13:10;1.25;;;0.80;;
78141;SDS011;67393;52.620;13.482;2024-02-23T07:15:36;1.42;;;0.93;;
78141;SDS011;67393;52.620;13.482;2024-02-23T07:18:03;1.17;;;0.82;;
78141;SDS011;67393;52.620;13.482;2024-02-23T07:20:29;0.70;;;0.70;;
78141;SDS011;67393;52.620;13.482;2024-02-23T07:22:56;0.80;;;0.80;;
78141;SDS011;67393;52.620;13.482;2024-02-23T07:25:22;1.55;;;0.68;;
78141;SDS011;67393;52.620;13.482;2024-02-23T07:27:48;1.00;;;0.90;;
78141;SDS011;67393;52.620;13.482;2024-02-23T07:30:15;1.00;;;0.75;;
78141;SDS011;67393;52.620;13.482;2024-02-23T07:32:41;0.43;;;0.43;;
78141;SDS011;67393;52.620;13.482;2024-02-23T07:35:08;1.45;;;0.75;;
78141;SDS011;67393;52.620;13.482;2024-02-23T07:37:35;1.50;;;1.00;;
78141;SDS011;67393;52.620;13.482;2024-02-23T07:40:02;0.70;;;0.70;;
78141;SDS011;67393;52.620;13.482;2024-02-23T07:42:28;0.50;;;0.50;;
78141;SDS011;67393;52.620;13.482;2024-02-23T07:44:54;0.90;;;0.90;;
78141;SDS011;67393;52.620;13.482;2024-02-23T07:47:21;1.40;;;1.00;;
78141;SDS011;67393;52.620;13.482;2024-02-23T07:49:47;2.92;;;1.17;;
78141;SDS011;67393;52.620;13.482;2024-02-23T07:52:14;0.60;;;0.60;;
78141;SDS011;67393;52.620;13.482;2024-02-23T07:54:40;1.02;;;0.93;;
78141;SDS011;67393;52.620;13.482;2024-02-23T07:57:06;1.23;;;1.13;;
78141;SDS011;67393;52.620;13.482;2024-02-23T07:59:32;0.82;;;0.70;;
78141;SDS011;67393;52.620;13.482;2024-02-23T08:01:59;1.45;;;0.70;;
78141;SDS011;67393;52.620;13.482;2024-02-23T08:04:25;1.55;;;0.80;;
78141;SDS011;67393;52.620;13.482;2024-02-23T08:06:52;1.10;;;0.77;;
78141;SDS011;67393;52.620;13.482;2024-02-23T08:09:18;0.85;;;0.80;;
78141;SDS011;67393;52.620;13.482;2024-02-23T08:11:44;0.68;;;0.68;;
78141;SDS011;67393;52.620;13.482;2024-02-23T08:14:10;1.42;;;0.90;;
78141;SDS011;67393;52.620;13.482;2024-02-23T08:16:37;5.05;;;1.05;;
78141;SDS011;67393;52.620;13.482;2024-02-23T08:19:03;1.52;;;0.80;;
78141;SDS011;67393;52.620;13.482;2024-02-23T08:21:29;1.08;;;0.85;;
78141;SDS011;67393;52.620;13.482;2024-02-23T08:23:56;1.02;;;0.90;;
78141;SDS011;67393;52.620;13.482;2024-02-23T08:26:22;1.27;;;1.17;;
78141;SDS011;67393;52.620;13.482;2024-02-23T08:28:48;1.92;;;1.02;;
78141;SDS011;67393;52.620;13.482;2024-02-23T08:31:14;0.88;;;0.85;;
78141;SDS011;67393;52.620;13.482;2024-02-23T08:33:41;1.45;;;1.00;;
78141;SDS011;67393;52.620;13.482;2024-02-23T08:36:07;0.98;;;0.80;;
78141;SDS011;67393;52.620;13.482;2024-02-23T08:38:33;1.30;;;0.93;;
78141;SDS011;67393;52.620;13.482;2024-02-23T08:41:01;3.90;;;0.85;;
78141;SDS011;67393;52.620;13.482;2024-02-23T08:43:28;0.82;;;0.82;;
78141;SDS011;67393;52.620;13.482;2024-02-23T08:45:54;1.00;;;0.95;;
78141;SDS011;67393;52.620;13.482;2024-02-23T08:48:20;1.92;;;0.77;;
78141;SDS011;67393;52.620;13.482;2024-02-23T08:50:47;1.50;;;0.70;;
78141;SDS011;67393;52.620;13.482;2024-02-23T08:53:13;1.45;;;0.75;;
78141;SDS011;67393;52.620;13.482;2024-02-23T08:55:39;1.15;;;0.57;;
78141;SDS011;67393;52.620;13.482;2024-02-23T08:58:05;0.70;;;0.70;;
78141;SDS011;67393;52.620;13.482;2024-02-23T09:00:32;0.40;;;0.40;;
78141;SDS011;67393;52.620;13.482;2024-02-23T09:02:58;0.95;;;0.65;;
78141;SDS011;67393;52.620;13.482;2024-02-23T09:05:24;0.70;;;0.70;;
78141;SDS011;67393;52.620;13.482;2024-02-23T09:07:51;0.70;;;0.50;;
78141;SDS011;67393;52.620;13.482;2024-02-23T09:10:17;0.60;;;0.60;;
78141;SDS011;67393;52.620;13.482;2024-02-23T09:12:43;2.22;;;0.68;;
78141;SDS011;67393;52.620;13.482;2024-02-23T09:15:10;0.82;;;0.55;;
78141;SDS011;67393;52.620;13.482;2024-02-23T09:17:36;2.03;;;0.90;;
78141;SDS011;67393;52.620;13.482;2024-02-23T09:20:02;2.65;;;0.65;;
78141;SDS011;67393;52.620;13.482;2024-02-23T09:22:29;0.68;;;0.40;;
78141;SDS011;67393;52.620;13.482;2024-02-23T09:24:55;1.85;;;0.90;;
78141;SDS011;67393;52.620;13.482;2024-02-23T09:27:21;0.98;;;0.55;;
78141;SDS011;67393;52.620;13.482;2024-02-23T09:29:48;0.70;;;0.70;;
78141;SDS011;67393;52.620;13.482;2024-02-23T09:32:14;1.35;;;0.93;;
78141;SDS011;67393;52.620;13.482;2024-02-23T09:34:40;0.40;;;0.35;;
78141;SDS011;67393;52.620;13.482;2024-02-23T09:37:06;0.68;;;0.40;;
78141;SDS011;67393;52.620;13.482;2024-02-23T09:39:33;1.20;;;0.32;;
78141;SDS011;67393;52.620;13.482;2024-02-23T09:41:59;0.88;;;0.75;;
78141;SDS011;67393;52.620;13.482;2024-02-23T09:44:32;1.95;;;0.73;;
78141;SDS011;67393;52.620;13.482;2024-02-23T09:46:59;1.88;;;1.10;;
78141;SDS011;67393;52.620;13.482;2024-02-23T09:49:26;1.00;;;0.63;;
78141;SDS011;67393;52.620;13.482;2024-02-23T09:51:52;0.45;;;0.45;;
78141;SDS011;67393;52.620;13.482;2024-02-23T09:54:20;0.63;;;0.52;;
78141;SDS011;67393;52.620;13.482;2024-02-23T09:56:47;0.22;;;0.22;;
78141;SDS011;67393;52.620;13.482;2024-02-23T09:59:13;1.60;;;0.65;;
78141;SDS011;67393;52.620;13.482;2024-02-23T10:01:39;0.65;;;0.65;;
78141;SDS011;67393;52.620;13.482;2024-02-23T10:04:05;0.90;;;0.65;;
78141;SDS011;67393;52.620;13.482;2024-02-23T10:06:32;0.73;;;0.60;;
78141;SDS011;67393;52.620;13.482;2024-02-23T10:08:58;1.00;;;0.55;;
78141;SDS011;67393;52.620;13.482;2024-02-23T10:11:25;3.65;;;0.77;;
78141;SDS011;67393;52.620;13.482;2024-02-23T10:13:51;0.40;;;0.40;;
78141;SDS011;67393;52.620;13.482;2024-02-23T10:16:18;0.93;;;0.52;;
78141;SDS011;67393;52.620;13.482;2024-02-23T10:18:44;1.25;;;0.52;;
78141;SDS011;67393;52.620;13.482;2024-02-23T10:21:11;0.65;;;0.65;;
78141;SDS011;67393;52.620;13.482;2024-02-23T10:23:37;1.55;;;0.60;;
78141;SDS011;67393;52.620;13.482;2024-02-23T10:26:04;0.43;;;0.35;;
78141;SDS011;67393;52.620;13.482;2024-02-23T10:28:31;0.93;;;0.60;;
78141;SDS011;67393;52.620;13.482;2024-02-23T10:30:57;5.00;;;1.40;;
78141;SDS011;67393;52.620;13.482;2024-02-23T10:33:23;3.13;;;0.55;;
78141;SDS011;67393;52.620;13.482;2024-02-23T10:35:52;0.35;;;0.35;;
78141;SDS011;67393;52.620;13.482;2024-02-23T10:38:21;1.20;;;0.40;;
78141;SDS011;67393;52.620;13.482;2024-02-23T10:40:48;0.45;;;0.22;;
78141;SDS011;67393;52.620;13.482;2024-02-23T10:43:17;1.20;;;0.60;;
78141;SDS011;67393;52.620;13.482;2024-02-23T10:45:45;0.65;;;0.50;;
78141;SDS011;67393;52.620;13.482;2024-02-23T10:48:12;1.58;;;0.40;;
78141;SDS011;67393;52.620;13.482;2024-02-23T10:50:38;0.85;;;0.60;;
78141;SDS011;67393;52.620;13.482;2024-02-23T10:53:06;1.55;;;0.50;;
78141;SDS011;67393;52.620;13.482;2024-02-23T10:55:33;1.75;;;0.80;;
78141;SDS011;67393;52.620;13.482;2024-02-23T10:57:59;1.75;;;0.63;;
78141;SDS011;67393;52.620;13.482;2024-02-23T11:00:26;1.58;;;0.43;;
78141;SDS011;67393;52.620;13.482;2024-02-23T11:02:53;3.20;;;0.80;;
78141;SDS011;67393;52.620;13.482;2024-02-23T11:05:20;0.73;;;0.30;;
78141;SDS011;67393;52.620;13.482;2024-02-23T11:07:47;3.20;;;1.00;;
78141;SDS011;67393;52.620;13.482;2024-02-23T11:10:22;0.38;;;0.32;;
78141;SDS011;67393;52.620;13.482;2024-02-23T11:12:48;2.10;;;0.70;;
78141;SDS011;67393;52.620;13.482;2024-02-23T11:15:26;1.13;;;0.60;;
78141;SDS011;67393;52.620;13.482;2024-02-23T11:17:52;1.05;;;0.65;;
78141;SDS011;67393;52.620;13.482;2024-02-23T11:20:19;2.75;;;0.63;;
78141;SDS011;67393;52.620;13.482;2024-02-23T11:22:56;1.42;;;0.68;;
78141;SDS011;67393;52.620;13.482;2024-02-23T11:25:26;1.50;;;0.70;;
78141;SDS011;67393;52.620;13.482;2024-02-23T11:27:52;0.43;;;0.28;;
78141;SDS011;67393;52.620;13.482;2024-02-23T11:30:19;2.17;;;0.90;;
78141;SDS011;67393;52.620;13.482;2024-02-23T11:32:48;1.05;;;0.70;;
78141;SDS011;67393;52.620;13.482;2024-02-23T11:35:15;2.20;;;0.50;;
78141;SDS011;67393;52.620;13.482;2024-02-23T11:37:45;2.05;;;0.75;;
78141;SDS011;67393;52.620;13.482;2024-02-23T11:40:12;2.65;;;1.05;;
78141;SDS011;67393;52.620;13.482;2024-02-23T11:42:40;2.40;;;1.10;;
78141;SDS011;67393;52.620;13.482;2024-02-23T11:45:09;3.47;;;1.42;;
78141;SDS011;67393;52.620;13.482;2024-02-23T11:47:36;2.83;;;1.75;;
78141;SDS011;67393;52.620;13.482;2024-02-23T11:50:03;2.50;;;1.27;;
78141;SDS011;67393;52.620;13.482;2024-02-23T11:52:29;1.02;;;0.70;;
78141;SDS011;67393;52.620;13.482;2024-02-23T11:54:56;0.50;;;0.50;;
78141;SDS011;67393;52.620;13.482;2024-02-23T11:57:23;2.17;;;0.55;;
78141;SDS011;67393;52.620;13.482;2024-02-23T11:59:50;0.68;;;0.68;;
78141;SDS011;67393;52.620;13.482;2024-02-23T12:02:16;1.75;;;0.88;;
78141;SDS011;67393;52.620;13.482;2024-02-23T12:04:43;1.77;;;0.60;;
78141;SDS011;67393;52.620;13.482;2024-02-23T12:07:09;5.78;;;0.80;;
78141;SDS011;67393;52.620;13.482;2024-02-23T12:09:35;0.68;;;0.68;;
78141;SDS011;67393;52.620;13.482;2024-02-23T12:12:02;2.50;;;1.00;;
78141;SDS011;67393;52.620;13.482;2024-02-23T12:14:28;3.08;;;1.60;;
78141;SDS011;67393;52.620;13.482;2024-02-23T12:16:56;1.45;;;0.50;;
78141;SDS011;67393;52.620;13.482;2024-02-23T12:19:23;1.10;;;0.65;;
78141;SDS011;67393;52.620;13.482;2024-02-23T12:21:49;2.05;;;0.80;;
78141;SDS011;67393;52.620;13.482;2024-02-23T12:24:15;0.93;;;0.57;;
78141;SDS011;67393;52.620;13.482;2024-02-23T12:26:41;1.45;;;0.52;;
78141;SDS011;67393;52.620;13.482;2024-02-23T12:29:08;3.33;;;0.63;;
78141;SDS011;67393;52.620;13.482;2024-02-23T12:31:35;0.60;;;0.60;;
78141;SDS011;67393;52.620;13.482;2024-02-23T12:34:01;0.90;;;0.80;;
78141;SDS011;67393;52.620;13.482;2024-02-23T12:36:28;1.33;;;0.77;;
78141;SDS011;67393;52.620;13.482;2024-02-23T12:38:54;0.75;;;0.50;;
78141;SDS011;67393;52.620;13.482;2024-02-23T12:41:20;2.08;;;0.60;;
78141;SDS011;67393;52.620;13.482;2024-02-23T12:43:47;2.70;;;0.75;;
78141;SDS011;67393;52.620;13.482;2024-02-23T12:46:19;0.65;;;0.65;;
78141;SDS011;67393;52.620;13.482;2024-02-23T12:48:45;1.23;;;0.70;;
78141;SDS011;67393;52.620;13.482;2024-02-23T12:51:11;3.08;;;1.00;;
78141;SDS011;67393;52.620;13.482;2024-02-23T12:53:38;2.15;;;0.60;;
78141;SDS011;67393;52.620;13.482;2024-02-23T12:56:06;1.77;;;0.73;;
78141;SDS011;67393;52.620;13.482;2024-02-23T12:58:32;2.00;;;0.85;;
78141;SDS011;67393;52.620;13.482;2024-02-23T13:00:58;1.25;;;0.68;;
78141;SDS011;67393;52.620;13.482;2024-02-23T13:03:25;0.40;;;0.40;;
78141;SDS011;67393;52.620;13.482;2024-02-23T13:05:55;0.40;;;0.40;;
78141;SDS011;67393;52.620;13.482;2024-02-23T13:08:22;1.17;;;0.82;;
78141;SDS011;67393;52.620;13.482;2024-02-23T13:10:49;0.60;;;0.47;;
78141;SDS011;67393;52.620;13.482;2024-02-23T13:13:15;2.55;;;0.68;;
78141;SDS011;67393;52.620;13.482;2024-02-23T13:15:42;4.85;;;0.95;;
78141;SDS011;67393;52.620;13.482;2024-02-23T13:18:09;0.70;;;0.70;;
78141;SDS011;67393;52.620;13.482;2024-02-23T13:20:35;1.33;;;0.80;;
78141;SDS011;67393;52.620;13.482;2024-02-23T13:23:02;0.77;;;0.60;;
78141;SDS011;67393;52.620;13.482;2024-02-23T13:25:28;2.20;;;1.10;;
78141;SDS011;67393;52.620;13.482;2024-02-23T13:27:54;1.88;;;0.80;;
78141;SDS011;67393;52.620;13.482;2024-02-23T13:30:21;2.40;;;0.60;;
78141;SDS011;67393;52.620;13.482;2024-02-23T13:32:47;2.00;;;0.52;;
78141;SDS011;67393;52.620;13.482;2024-02-23T13:35:13;1.95;;;0.70;;
78141;SDS011;67393;52.620;13.482;2024-02-23T13:37:40;0.63;;;0.63;;
78141;SDS011;67393;52.620;13.482;2024-02-23T13:40:07;6.63;;;0.60;;
78141;SDS011;67393;52.620;13.482;2024-02-23T13:42:34;0.60;;;0.50;;
78141;SDS011;67393;52.620;13.482;2024-02-23T13:45:00;0.63;;;0.63;;
78141;SDS011;67393;52.620;13.482;2024-02-23T13:47:27;4.13;;;1.10;;
78141;SDS011;67393;52.620;13.482;2024-02-23T13:49:53;13.35;;;1.75;;
78141;SDS011;67393;52.620;13.482;2024-02-23T13:52:20;2.78;;;1.20;;
78141;SDS011;67393;52.620;13.482;2024-02-23T13:54:46;2.80;;;0.95;;
78141;SDS011;67393;52.620;13.482;2024-02-23T13:57:12;2.35;;;1.27;;
78141;SDS011;67393;52.620;13.482;2024-02-23T13:59:38;3.53;;;0.93;;
78141;SDS011;67393;52.620;13.482;2024-02-23T14:02:05;0.70;;;0.70;;
78141;SDS011;67393;52.620;13.482;2024-02-23T14:04:31;0.93;;;0.80;;
78141;SDS011;67393;52.620;13.482;2024-02-23T14:06:57;0.88;;;0.77;;
78141;SDS011;67393;52.620;13.482;2024-02-23T14:09:24;2.25;;;0.85;;
78141;SDS011;67393;52.620;13.482;2024-02-23T14:11:50;1.75;;;0.75;;
78141;SDS011;67393;52.620;13.482;2024-02-23T14:14:16;0.70;;;0.65;;
78141;SDS011;67393;52.620;13.482;2024-02-23T14:16:43;2.40;;;1.08;;
78141;SDS011;67393;52.620;13.482;2024-02-23T14:19:09;1.80;;;1.20;;
78141;SDS011;67393;52.620;13.482;2024-02-23T14:21:35;2.90;;;1.20;;
78141;SDS011;67393;52.620;13.482;2024-02-23T14:24:02;1.77;;;1.33;;
78141;SDS011;67393;52.620;13.482;2024-02-23T14:26:28;2.60;;;1.02;;
78141;SDS011;67393;52.620;13.482;2024-02-23T14:28:54;2.13;;;1.33;;